createdAt,value
2023-03-23T15:58:13.104Z,35.68
2023-03-23T16:00:43.887Z,35.97
2023-03-23T16:03:19.929Z,36.28
2023-03-23T16:05:47.560Z,36.57
2023-03-23T16:08:16.174Z,36.89
2023-03-23T16:10:44.538Z,37.22
2023-03-23T16:13:13.986Z,37.50
2023-03-23T16:15:44.346Z,37.85
2023-03-23T16:18:17.764Z,38.04
2023-03-23T16:20:45.723Z,38.39
2023-03-23T16:23:13.532Z,38.68
2023-03-23T16:25:41.454Z,38.93
2023-03-23T16:28:12.972Z,39.07
2023-03-23T16:30:42.092Z,39.36
2023-03-23T16:33:10.123Z,39.78
2023-03-23T16:35:41.175Z,39.97
2023-03-23T16:38:15.962Z,40.41
2023-03-23T16:40:46.430Z,40.84
2023-03-23T16:43:14.514Z,41.23
2023-03-23T16:45:47.650Z,41.88
2023-03-23T16:48:16.922Z,42.58
2023-03-23T16:50:47.009Z,42.72
2023-03-23T16:53:16.082Z,42.98
2023-03-23T16:55:47.912Z,43.34
2023-03-23T16:58:25.741Z,43.54
2023-03-23T17:00:54.029Z,43.98
2023-03-23T17:03:23.628Z,44.26
2023-03-23T17:05:54.635Z,44.70
2023-03-23T17:08:22.705Z,45.01
2023-03-23T17:10:50.625Z,45.20
2023-03-23T17:13:19.814Z,45.43
2023-03-23T17:15:47.727Z,45.53
2023-03-23T17:18:15.874Z,45.79
2023-03-23T17:20:43.847Z,46.22
2023-03-23T17:23:11.996Z,46.48
2023-03-23T17:25:40.197Z,46.77
2023-03-23T17:28:08.126Z,46.97
2023-03-23T17:30:41.515Z,47.44
2023-03-23T17:33:10.746Z,47.57
2023-03-23T17:35:38.299Z,48.01
2023-03-23T17:38:05.996Z,48.36
2023-03-23T17:40:33.999Z,49.16
2023-03-23T17:43:02.084Z,48.93
2023-03-23T17:45:31.211Z,49.18
2023-03-23T17:47:59.500Z,49.38
2023-03-23T17:50:27.404Z,49.76
2023-03-23T17:52:56.354Z,49.81
2023-03-23T17:55:23.914Z,50.11
2023-03-23T17:57:51.795Z,50.37
2023-03-23T18:00:20.657Z,50.54
2023-03-23T18:02:48.264Z,50.69
2023-03-23T18:05:16.370Z,50.90
2023-03-23T18:07:45.928Z,51.20
2023-03-23T18:10:15.707Z,51.56
2023-03-23T18:12:45.364Z,51.82
2023-03-23T18:15:14.908Z,52.04
2023-03-23T18:17:44.585Z,52.25
2023-03-23T18:20:12.618Z,52.51
2023-03-23T18:22:40.143Z,52.88
2023-03-23T18:25:08.217Z,53.20
2023-03-23T18:27:37.491Z,53.46
2023-03-23T18:30:07.468Z,53.63
2023-03-23T18:32:38.613Z,53.77
2023-03-23T18:35:10.512Z,54.19
2023-03-23T18:37:40.953Z,54.81
2023-03-23T18:40:10.891Z,54.71
2023-03-23T18:42:42.094Z,54.78
2023-03-23T18:45:10.473Z,55.02
2023-03-23T18:47:39.272Z,55.12
2023-03-23T18:50:10.998Z,55.36
2023-03-23T18:52:38.982Z,55.61
2023-03-23T18:55:07.352Z,55.52
2023-03-23T18:57:35.356Z,55.53
2023-03-23T19:00:05.620Z,55.55
2023-03-23T19:02:34.969Z,55.79
2023-03-23T19:05:03.054Z,56.03
2023-03-23T19:07:31.489Z,56.51
2023-03-23T19:10:01.517Z,56.39
2023-03-23T19:12:29.218Z,56.46
2023-03-23T19:14:58.092Z,56.40
2023-03-23T19:17:26.511Z,56.44
2023-03-23T19:19:54.646Z,56.39
2023-03-23T19:22:22.601Z,56.52
2023-03-23T19:24:50.708Z,56.54
2023-03-23T19:27:21.045Z,56.62
2023-03-23T19:29:50.653Z,56.63
2023-03-23T19:32:20.037Z,56.77
2023-03-23T19:34:51.013Z,56.89
2023-03-23T19:37:18.747Z,56.89
2023-03-23T19:39:47.650Z,57.10
2023-03-23T19:42:17.422Z,57.41
2023-03-23T19:44:45.242Z,57.54
2023-03-23T19:47:13.594Z,57.76
2023-03-23T19:49:42.006Z,58.01
2023-03-23T19:52:12.670Z,58.10
2023-03-23T19:54:40.911Z,58.34
2023-03-23T19:57:10.029Z,58.57
2023-03-23T19:59:38.372Z,58.77
2023-03-23T20:02:06.888Z,58.98
2023-03-23T20:04:36.040Z,59.09
2023-03-23T20:07:07.435Z,59.30
2023-03-23T20:09:36.822Z,59.54
2023-03-23T20:12:06.434Z,59.82
2023-03-23T20:14:35.379Z,59.89
2023-03-23T20:17:05.472Z,59.95
2023-03-23T20:22:02.584Z,60.29
2023-03-23T20:24:30.713Z,60.52
2023-03-23T20:27:00.686Z,60.79
2023-03-23T20:29:31.574Z,61.08
2023-03-23T20:31:59.500Z,61.09
2023-03-23T20:34:30.437Z,61.22
2023-03-23T20:37:01.466Z,61.34
2023-03-23T20:39:31.601Z,61.46
2023-03-23T20:42:02.927Z,61.63
2023-03-23T20:44:33.438Z,61.66
2023-03-23T20:47:02.821Z,61.71
2023-03-23T20:49:31.550Z,61.92
2023-03-23T20:51:59.866Z,62.18
2023-03-23T20:54:29.772Z,62.28
2023-03-23T20:57:00.677Z,62.31
2023-03-23T20:59:28.629Z,63.00
2023-03-23T21:01:56.503Z,62.66
2023-03-23T21:04:28.338Z,62.83
2023-03-23T21:06:56.485Z,63.12
2023-03-23T21:09:24.816Z,63.07
2023-03-23T21:11:53.785Z,63.11
2023-03-23T21:14:21.880Z,63.37
2023-03-23T21:16:49.724Z,63.55
2023-03-23T21:19:18.935Z,63.52
2023-03-23T21:21:55.301Z,63.66
2023-03-23T21:24:16.944Z,63.70
2023-03-23T21:26:44.884Z,64.32
2023-03-23T21:29:15.443Z,64.22
2023-03-23T21:31:43.929Z,64.20
2023-03-23T21:34:13.440Z,64.33
2023-03-23T21:36:41.413Z,64.37
2023-03-23T21:39:09.950Z,64.54
2023-03-23T21:41:41.974Z,64.71
2023-03-23T21:44:09.728Z,64.85
2023-03-23T21:46:41.642Z,64.91
2023-03-23T21:49:13.128Z,65.21
2023-03-23T21:51:42.836Z,65.19
2023-03-23T21:54:12.090Z,65.17
2023-03-23T21:56:40.068Z,65.24
2023-03-23T21:59:08.582Z,65.36
2023-03-23T22:01:37.138Z,65.37
2023-03-23T22:04:07.342Z,65.51
2023-03-23T22:06:35.357Z,65.66
2023-03-23T22:09:04.816Z,65.67
2023-03-23T22:11:32.988Z,65.87
2023-03-23T22:14:01.506Z,65.92
2023-03-23T22:16:29.873Z,66.08
2023-03-23T22:19:00.355Z,66.11
2023-03-23T22:21:29.960Z,66.45
2023-03-23T22:23:59.990Z,66.77
2023-03-23T22:26:29.555Z,66.97
2023-03-23T22:28:59.769Z,66.97
2023-03-23T22:31:33.295Z,67.20
2023-03-23T22:34:01.760Z,67.35
2023-03-23T22:36:32.808Z,67.37
2023-03-23T22:39:01.648Z,67.49
2023-03-23T22:41:35.019Z,67.57
2023-03-23T22:44:05.636Z,67.76
2023-03-23T22:46:33.669Z,67.80
2023-03-23T22:49:01.994Z,67.69
2023-03-23T22:51:30.184Z,67.73
2023-03-23T22:53:58.225Z,67.87
2023-03-23T22:56:26.109Z,67.74
2023-03-23T22:58:54.208Z,68.08
2023-03-23T23:01:23.075Z,68.06
2023-03-23T23:03:51.306Z,68.09
2023-03-23T23:06:20.540Z,68.01
2023-03-23T23:08:48.890Z,68.04
2023-03-23T23:11:20.859Z,68.10
2023-03-23T23:13:49.733Z,68.06
2023-03-23T23:16:21.124Z,68.10
2023-03-23T23:18:49.300Z,68.13
2023-03-23T23:21:20.786Z,68.10
2023-03-23T23:23:50.655Z,68.29
2023-03-23T23:26:20.046Z,68.28
2023-03-23T23:28:48.341Z,68.16
2023-03-23T23:31:27.281Z,68.09
2023-03-23T23:33:58.694Z,68.10
2023-03-23T23:36:29.257Z,68.21
2023-03-23T23:38:59.135Z,68.27
2023-03-23T23:41:29.500Z,68.33
2023-03-23T23:43:57.416Z,68.31
2023-03-23T23:46:26.051Z,68.25
2023-03-23T23:48:54.036Z,68.18
2023-03-23T23:51:23.741Z,68.16
2023-03-23T23:53:53.011Z,68.13
2023-03-23T23:56:21.816Z,68.07
2023-03-23T23:58:49.655Z,67.98
